• METAR

    LHBP Budapest Liszt Ferenc repülőtér METAR

    LHBP 212130Z 19008KT CAVOK 24/21 Q1010 TEMPO FM2300 30018G30KT TSRA SCT035CB BKN065

    QNH légnyomás:1010hpa
    Hőmérséklet/temperature: 24°C
    Harmatpont/Dew Point Temp: 21°C

    LHDC Debreceni repülőtér METAR

    LHDC 212115Z 18006KT CAVOK 21/17 Q1011 NOSIG

    QNH légnyomás:1011hpa
    Hőmérskélet/temperature: 21°C
    Harmatpont/Dew Point Temp: 17°C

    LHPR Győr-pér repülőtér METAR

    LHPR 212115Z AUTO 26006KT 230V290 CAVOK 23/19 Q1009 RMK BLU

    QNH légnyomás:1009hpa
    Hőmérskélet/temperature: 23°C
    Harmatpont/Dew Point Temp: 19°C

    lhsm Sármellék repülőtér METAR

    LHSM 211545Z 19009KT CAVOK 30/18 Q1011 NOSIG

    QNH légnyomás:1011hpa
    Hőmérskélet/temperature: 30°C
    Harmatpont/Dew Point Temp: 18°C

    lhpp Pécs-pogány repülőtér METAR

    LHPP 211645Z 17004KT CAVOK 29/19 Q1012

    QNH légnyomás:1012hpa
    Hőmérskélet/temperature: 29°C
    Harmatpont/Dew Point Temp: 19°C

    LHKE Kecskemét repülőtér METAR

    LHKE 212145Z 17006KT 140V200 CAVOK 23/19 Q1010 NOSIG RMK BLU

    QNH légnyomás:1010hpa
    Hőmérskélet/temperature: 23°C
    Harmatpont/Dew Point Temp: 19°C

    LHSN Szolnok repülőtér METAR

    LHSN 212145Z 20006KT 170V230 CAVOK 22/18 Q1010 NOSIG RMK BLU

    QNH légnyomás:1010hpa
    Hőmérskélet/temperature: 22°C
    Harmatpont/Dew Point Temp: 18°C

    LHUD szeged repülőtér METAR

    LHUD 212045Z 17005KT CAVOK 22/19 Q1012

    QNH légnyomás:1012hpa
    Hőmérskélet/temperature: 22°C
    Harmatpont/Dew Point Temp: 19°C

  • TÉRKÉPEK

    Felhőkép

    Széltérkép

    Hőtérkép

    radarkép

    map

    map

  • Műholdképek

    Magyarország műholdkép

    Europa műholdkép

    Europa szinoptikus térkép

  • ELTE ELŐREJELZÉS (2 NAP LHBP)

    2 napos légnyomás előrejelzés Budapest LHBP

    2 napos szél előrejelzés Budapest LHBP

    2 napos termik trigger előrejelzés Budapest LHBP

    2 napos felhőzet előrejelzés Budapest LHBP

    2 napos thermal index profile előrejelzés Budapest LHBP

    2 napos átlag emelés előrejelzés Budapest LHBP

    2 napos felhő alap előrejelzés Budapest LHBP

    2 napos hőmérséklet advekció előrejelzés Budapest LHBP

  • VILLÁMRADAR

  • ELŐREJELZÉS

  • WINDFINDER ELŐREJELZÉS

  • RIASZTÁS - VÉSZJELZÉS

Repülésmeteorológia, aktuális időjárási helyzet és előrejelzés

Repülésmeteorológia, várható időjárás jelentések, előrejelzések és riasztások. METAR, TAF adatok, aktuális időjárás helyzetek és térképek.

A meteorológia kialakulásában és fejlődésében kiemelt szerep jutott a repülésnek, illetve a repülés technikai fejlődésének. A repülésmeteorológia elsődlegesen a repülés biztonságát, másodlagosan a repülés gazdaságosságát hivatott szolgálni. Eleinte a katonai repülőgépeknek, később a polgári repülésnek, ma már a sportrepülő pilótáknak, és a mezőgazdasági pilótáknak is egyaránt szükségük van a naprakész meteorológiai információkra.

Repülésmeteorológia oldalunkon összegyűjtöttük a legnépszerűbb és legjobb időjárás oldalak hivatkozásait, hogy repülés előtt vagy akár közben minden fontos forrást egyszerűen és gyorsan megtalálj. Magyarország várható időjárása, légállapoti diagramok, termik előrejelzés, METAR adatok, vészjelzések és figyelmeztetések. A képernyő szélén közvetlenül pedig pozíciód aktuális időjárási paramétereit is megtalálod.

JOGI NYILATKOZAT

Az oldal használatával a látogató elfogadja az alábbi felhasználási feltételeket:

Az oldalon feltüntetett repülésmeteorológia információkat mindenki csak saját felelősségre használhatja. A feltüntetett külső forrásokból származó információk pontosságáért és tartalmáért, valamint az esetlegesen ebből adódó bármilyen káresemény kapcsán a FLYTIME.HU nem vállal felelősséget!